This is the latest recevied weather packets stored in our database for station/object NC4M. If no packets are shown the sender has not sent any weather packets the latest 10 day(s).
| Time | Temp. | Humidity | Pressure | Rain* | Wind** | Luminosity | Snow |
|---|---|---|---|---|---|---|---|
| 1777590790 | 17.22° C | 47% | 1015.4 hPa | 0 mm | - | 85 W/m² | - |
| 1777590486 | 17.22° C | 46% | 1015.3 hPa | 0 mm | - | 83 W/m² | - |
| 1777590183 | 17.22° C | 42% | 1015.5 hPa | 0 mm | - | 78 W/m² | - |
| 1777589880 | 17.22° C | 43% | 1015.5 hPa | 0 mm | - | 69 W/m² | - |
| 1777589575 | 17.22° C | 40% | 1015.8 hPa | 0 mm | - | 63 W/m² | - |
| 1777589273 | 17.78° C | 42% | 1015.6 hPa | 0 mm | - | 63 W/m² | - |
| 1777588971 | 17.78° C | 38% | 1015.4 hPa | 0 mm | - | 71 W/m² | - |
| 1777588666 | 17.78° C | 41% | 1015.5 hPa | 0 mm | - | 71 W/m² | - |
| 1777588362 | 18.33° C | 37% | 1015.6 hPa | 0 mm | - | 86 W/m² | - |
| 1777588058 | 18.89° C | 37% | 1015.4 hPa | 0 mm | - | 94 W/m² | - |
| 1777587754 | 19.44° C | 32% | 1015.6 hPa | 0 mm | - | 133 W/m² | - |
| 1777587453 | 20.56° C | 34% | 1015.6 hPa | 0 mm | - | 255 W/m² | - |
| 1777587150 | 21.11° C | 33% | 1015.6 hPa | 0 mm | - | 381 W/m² | - |
| 1777586845 | 20.56° C | 38% | 1015.7 hPa | 0 mm | - | 369 W/m² | - |
| 1777586541 | 20° C | 34% | 1015.4 hPa | 0 mm | - | 238 W/m² | - |
| 1777586237 | 20.56° C | 33% | 1015.6 hPa | 0 mm | - | 300 W/m² | - |
| 1777585934 | 20.56° C | 32% | 1015.4 hPa | 0 mm | - | 392 W/m² | - |
| 1777585630 | 20.56° C | 31% | 1015.6 hPa | 0 mm | - | 455 W/m² | - |
| 1777585325 | 20.56° C | 34% | 1015.6 hPa | 0 mm | - | 454 W/m² | - |
| 1777585020 | 20.56° C | 29% | 1015.7 hPa | 0 mm | - | 464 W/m² | - |
| 1777584716 | 20.56° C | 32% | 1015.7 hPa | 0 mm | - | 507 W/m² | - |
| 1777584415 | 20° C | 33% | 1015.7 hPa | 0 mm | - | 430 W/m² | - |
| 1777584111 | 21.67° C | 30% | 1015.8 hPa | 0 mm | - | 530 W/m² | - |
| 1777583810 | 21.67° C | 28% | 1015.7 hPa | 0 mm | - | 477 W/m² | - |
| 1777583506 | 21.67° C | 34% | 1015.9 hPa | 0 mm | - | 455 W/m² | - |
* Rain latest hour (hover to see other rain measurements)
** Current wind speed in m/s (hover to see current wind gust speed)